Time;durP1;ratioP1;P1;durP2;ratioP2;P2;SDS_P1;SDS_P2;PMS_P1;PMS_P2;Temp;Humidity;BMP_temperature;BMP_pressure;BME280_temperature;BME280_humidity;BME280_pressure;Samples;Min_cycle;Max_cycle;Signal;HPM_P1;HPM_P2
2023/05/25 00:01:42;;;;;;;9.88;5.40;;;11.00;99.90;;;;;;5030185;28;20037;-62
2023/05/25 00:04:09;;;;;;;12.05;5.57;;;11.00;99.90;;;;;;5028970;28;20029;-62
2023/05/25 00:06:36;;;;;;;16.52;5.78;;;11.00;99.90;;;;;;5032723;28;20624;-63
2023/05/25 00:09:01;;;;;;;13.95;5.55;;;10.90;99.90;;;;;;5033855;28;20061;-60
2023/05/25 00:11:27;;;;;;;12.77;5.90;;;10.80;99.90;;;;;;5031111;28;20073;-62
2023/05/25 00:13:53;;;;;;;11.35;5.30;;;10.80;99.90;;;;;;5037162;28;20392;-62
2023/05/25 00:16:19;;;;;;;13.27;5.85;;;10.90;99.90;;;;;;5036251;28;20045;-62
2023/05/25 00:18:47;;;;;;;10.43;5.43;;;10.90;99.90;;;;;;5038079;28;20429;-62
2023/05/25 00:21:13;;;;;;;12.20;5.05;;;10.80;99.90;;;;;;5031190;28;20033;-63
2023/05/25 00:23:38;;;;;;;12.27;5.35;;;10.90;99.90;;;;;;5037392;28;20197;-63
2023/05/25 00:26:04;;;;;;;10.27;5.43;;;10.90;99.90;;;;;;5034241;28;20037;-61
2023/05/25 00:28:30;;;;;;;9.98;5.47;;;10.80;99.90;;;;;;5034811;28;20107;-63
2023/05/25 00:30:55;;;;;;;13.27;5.28;;;10.60;99.90;;;;;;5033367;28;20093;-63
2023/05/25 00:33:21;;;;;;;10.82;5.10;;;10.50;99.90;;;;;;5035985;28;20139;-63
2023/05/25 00:35:47;;;;;;;13.73;5.85;;;10.60;99.90;;;;;;5036233;28;20712;-63
2023/05/25 00:38:17;;;;;;;9.95;5.57;;;10.50;99.90;;;;;;5039243;28;20443;-63
2023/05/25 00:40:43;;;;;;;15.07;5.38;;;10.40;99.90;;;;;;5031901;28;20044;-62
2023/05/25 00:43:09;;;;;;;13.88;5.45;;;10.40;99.90;;;;;;5030496;28;20116;-62
2023/05/25 00:45:35;;;;;;;12.65;5.75;;;10.30;99.90;;;;;;5036840;28;20045;-63
2023/05/25 00:48:02;;;;;;;15.25;5.70;;;10.50;99.90;;;;;;5032296;28;20034;-63
2023/05/25 00:50:38;;;;;;;10.73;5.55;;;10.30;99.90;;;;;;5033492;28;20038;-63
2023/05/25 00:53:08;;;;;;;11.20;5.28;;;10.60;99.90;;;;;;5032020;28;20117;-61
2023/05/25 00:55:38;;;;;;;9.35;5.50;;;10.20;99.90;;;;;;5031153;28;20044;-62
2023/05/25 00:58:05;;;;;;;13.57;5.20;;;10.20;99.90;;;;;;5032366;28;20045;-61
2023/05/25 01:00:34;;;;;;;14.63;6.28;;;10.40;99.90;;;;;;5030163;28;20037;-62
2023/05/25 01:03:03;;;;;;;12.32;5.82;;;10.60;99.90;;;;;;5030015;28;20075;-62
2023/05/25 01:05:31;;;;;;;11.63;5.63;;;10.60;99.90;;;;;;5033875;28;20064;-62
2023/05/25 01:08:00;;;;;;;11.60;5.35;;;10.50;99.90;;;;;;5027629;28;20026;-63
2023/05/25 01:10:31;;;;;;;9.77;5.05;;;10.50;99.90;;;;;;5034438;28;20037;-62
2023/05/25 01:13:00;;;;;;;14.13;5.95;;;10.40;99.90;;;;;;5035518;28;20420;-64
2023/05/25 01:15:25;;;;;;;11.45;5.22;;;10.30;99.90;;;;;;5037638;28;20366;-62
2023/05/25 01:17:52;;;;;;;20.40;6.38;;;10.20;99.90;;;;;;5038066;28;20032;-62
2023/05/25 01:20:18;;;;;;;12.98;6.10;;;10.20;99.90;;;;;;5034207;28;20500;-62
2023/05/25 01:22:44;;;;;;;17.98;6.07;;;10.20;99.90;;;;;;5033047;28;20033;-63
2023/05/25 01:25:22;;;;;;;14.18;6.50;;;10.10;99.90;;;;;;5029085;28;20036;-62
2023/05/25 01:27:53;;;;;;;13.07;5.95;;;10.10;99.90;;;;;;5031613;28;20641;-63
2023/05/25 01:30:21;;;;;;;14.55;5.85;;;10.20;99.90;;;;;;5031444;28;20140;-61
2023/05/25 01:32:48;;;;;;;14.52;6.38;;;10.20;99.90;;;;;;5030318;28;20104;-63
2023/05/25 01:35:15;;;;;;;11.82;6.40;;;10.30;99.90;;;;;;5033766;28;20048;-62
2023/05/25 01:37:48;;;;;;;19.08;6.60;;;10.30;99.90;;;;;;5030620;28;20037;-63
2023/05/25 01:40:14;;;;;;;16.58;6.30;;;10.20;99.90;;;;;;5027881;28;20037;-62
2023/05/25 01:42:40;;;;;;;14.20;6.55;;;10.00;99.90;;;;;;5035599;28;20037;-62
2023/05/25 01:45:07;;;;;;;14.50;6.63;;;10.10;99.90;;;;;;5029507;28;20041;-61
2023/05/25 01:47:49;;;;;;;17.27;7.15;;;10.20;99.90;;;;;;5032702;28;20037;-62
2023/05/25 01:50:32;;;;;;;14.30;6.57;;;10.20;99.90;;;;;;5026484;28;20072;-61
2023/05/25 01:53:09;;;;;;;;;;;10.00;99.90;;;;;;5029481;28;20064;-62
2023/05/25 01:55:45;;;;;;;19.48;7.00;;;10.10;99.90;;;;;;5031133;28;19928;-63
2023/05/25 01:58:13;;;;;;;15.27;6.40;;;10.10;99.90;;;;;;5030033;28;20052;-62
2023/05/25 02:00:40;;;;;;;16.38;6.82;;;10.10;99.90;;;;;;5033978;28;20029;-63
2023/05/25 02:03:06;;;;;;;15.98;7.10;;;10.00;99.90;;;;;;5027346;28;20070;-61
2023/05/25 02:05:32;;;;;;;17.90;6.95;;;9.90;99.90;;;;;;5032466;28;20033;-63
2023/05/25 02:07:57;;;;;;;18.42;6.85;;;10.00;99.90;;;;;;5033437;28;20088;-63
2023/05/25 02:10:23;;;;;;;18.55;7.80;;;9.90;99.90;;;;;;5034297;28;20025;-63
2023/05/25 02:12:48;;;;;;;22.55;7.65;;;10.10;99.90;;;;;;5032826;28;20101;-62
2023/05/25 02:15:15;;;;;;;17.23;6.75;;;10.00;99.90;;;;;;5028026;28;20064;-62
2023/05/25 02:17:42;;;;;;;14.45;7.30;;;10.10;99.90;;;;;;5033559;28;20029;-62
2023/05/25 02:20:08;;;;;;;16.60;6.93;;;10.00;99.90;;;;;;5029198;28;20061;-62
2023/05/25 02:22:34;;;;;;;18.20;7.40;;;10.10;99.90;;;;;;5031439;28;20568;-62
2023/05/25 02:24:59;;;;;;;18.65;7.43;;;10.00;99.90;;;;;;5028779;28;20040;-62
2023/05/25 02:27:25;;;;;;;20.63;7.10;;;10.10;99.90;;;;;;5030288;28;20037;-62
2023/05/25 02:29:52;;;;;;;19.48;7.07;;;10.10;99.90;;;;;;5035370;28;20037;-62
2023/05/25 02:32:18;;;;;;;16.90;7.15;;;10.00;99.90;;;;;;5029155;28;20029;-63
2023/05/25 02:34:43;;;;;;;17.77;7.57;;;10.10;99.90;;;;;;5032850;28;20052;-63
2023/05/25 02:37:09;;;;;;;15.73;7.07;;;10.10;99.90;;;;;;5032463;28;20045;-62
2023/05/25 02:39:34;;;;;;;15.77;6.97;;;10.00;99.90;;;;;;5034257;28;20068;-62
2023/05/25 02:42:00;;;;;;;17.88;7.10;;;10.00;99.90;;;;;;5037582;28;20289;-63
2023/05/25 02:44:25;;;;;;;20.02;8.27;;;10.00;99.90;;;;;;5035847;28;20385;-63
2023/05/25 02:46:51;;;;;;;13.27;7.22;;;10.00;99.90;;;;;;5036111;28;20113;-62
2023/05/25 02:49:17;;;;;;;17.55;7.35;;;10.10;99.90;;;;;;5034854;28;20042;-62
2023/05/25 02:51:42;;;;;;;17.80;7.03;;;9.80;99.90;;;;;;5044492;28;20035;-63
2023/05/25 02:54:08;;;;;;;15.23;7.47;;;9.80;99.90;;;;;;5033681;28;20083;-62
2023/05/25 02:56:33;;;;;;;12.50;6.85;;;9.80;99.90;;;;;;5034983;28;20100;-62
2023/05/25 02:58:59;;;;;;;14.73;6.80;;;9.70;99.90;;;;;;5031196;28;20073;-62
2023/05/25 03:01:24;;;;;;;13.82;6.90;;;9.80;99.90;;;;;;5037182;28;20038;-62
2023/05/25 03:03:53;;;;;;;17.40;7.22;;;9.90;99.90;;;;;;5034819;28;20025;-62
2023/05/25 03:06:20;;;;;;;17.08;7.35;;;9.70;99.90;;;;;;5031997;28;20029;-62
2023/05/25 03:08:45;;;;;;;17.85;7.13;;;9.70;99.90;;;;;;5029800;28;20120;-63
2023/05/25 03:11:11;;;;;;;19.00;7.43;;;9.60;99.90;;;;;;5032180;28;20131;-63
2023/05/25 03:13:37;;;;;;;14.50;6.70;;;9.70;99.90;;;;;;5031465;28;20373;-63
2023/05/25 03:16:02;;;;;;;15.10;7.85;;;9.70;99.90;;;;;;5040133;28;20362;-62
2023/05/25 03:18:28;;;;;;;21.05;8.02;;;9.90;99.90;;;;;;5028495;28;20045;-62
2023/05/25 03:20:53;;;;;;;17.02;7.07;;;9.70;99.90;;;;;;5034311;28;20036;-63
2023/05/25 03:23:19;;;;;;;11.40;6.80;;;9.70;99.90;;;;;;5038735;28;20241;-62
2023/05/25 03:25:45;;;;;;;13.00;6.88;;;9.60;99.90;;;;;;5031983;28;20035;-63
2023/05/25 03:28:10;;;;;;;13.82;6.38;;;9.50;99.90;;;;;;5034078;28;20242;-61
2023/05/25 03:30:36;;;;;;;12.73;6.93;;;9.40;99.90;;;;;;5038543;28;20509;-62
2023/05/25 03:33:02;;;;;;;17.05;7.13;;;9.30;99.90;;;;;;5033124;28;20658;-60
2023/05/25 03:35:27;;;;;;;17.00;7.47;;;9.20;99.90;;;;;;5028762;28;20444;-63
2023/05/25 03:37:53;;;;;;;13.75;7.20;;;9.20;99.90;;;;;;5032286;28;20025;-63
2023/05/25 03:40:18;;;;;;;19.08;7.57;;;9.20;99.90;;;;;;5030828;28;20409;-62
2023/05/25 03:42:44;;;;;;;15.07;7.70;;;9.30;99.90;;;;;;5038575;28;20526;-63
2023/05/25 03:45:10;;;;;;;19.02;7.72;;;9.40;99.90;;;;;;5033998;28;20108;-62
2023/05/25 03:47:36;;;;;;;16.30;7.65;;;9.50;99.90;;;;;;5034764;28;20041;-63
2023/05/25 03:50:05;;;;;;;14.70;7.25;;;9.60;99.90;;;;;;5034703;28;20631;-59
2023/05/25 03:52:32;;;;;;;15.27;7.72;;;9.50;99.90;;;;;;5037443;28;20069;-63
2023/05/25 03:55:00;;;;;;;12.95;7.32;;;9.50;99.90;;;;;;5030486;28;20044;-62
2023/05/25 03:57:26;;;;;;;16.85;7.43;;;9.30;99.90;;;;;;5030174;28;20084;-63
2023/05/25 03:59:51;;;;;;;22.08;8.18;;;9.30;99.90;;;;;;5029346;28;20037;-63
2023/05/25 04:02:17;;;;;;;14.38;7.80;;;9.20;99.90;;;;;;5030366;28;20029;-62
2023/05/25 04:04:44;;;;;;;17.77;8.15;;;9.30;99.90;;;;;;5034497;28;20044;-62
2023/05/25 04:07:10;;;;;;;19.25;8.52;;;9.30;99.90;;;;;;5035249;28;20133;-61
2023/05/25 04:09:35;;;;;;;15.13;7.97;;;9.30;99.90;;;;;;5029251;28;21361;-63
2023/05/25 04:12:01;;;;;;;18.58;8.50;;;9.40;99.90;;;;;;5031827;28;20041;-63
2023/05/25 04:14:27;;;;;;;15.80;7.90;;;9.50;99.90;;;;;;5037288;28;20578;-63
2023/05/25 04:16:52;;;;;;;16.90;8.50;;;9.50;99.90;;;;;;5030441;28;20517;-63
2023/05/25 04:19:18;;;;;;;22.05;8.75;;;9.50;99.90;;;;;;5032028;28;20167;-62
2023/05/25 04:21:44;;;;;;;17.10;8.50;;;9.60;99.90;;;;;;5036384;28;20040;-62
2023/05/25 04:24:10;;;;;;;17.88;8.23;;;9.60;99.90;;;;;;5036287;28;20087;-62
2023/05/25 04:26:38;;;;;;;17.52;8.48;;;9.60;99.90;;;;;;5031833;28;20098;-63
2023/05/25 04:29:03;;;;;;;14.07;7.65;;;9.70;99.90;;;;;;5034517;28;20060;-62
2023/05/25 04:31:29;;;;;;;17.35;7.95;;;9.70;99.90;;;;;;5029407;28;20496;-63
2023/05/25 04:33:55;;;;;;;16.52;7.72;;;9.70;99.90;;;;;;5030162;28;20048;-62
2023/05/25 04:36:21;;;;;;;19.30;8.80;;;9.70;99.90;;;;;;5030591;28;20037;-62
2023/05/25 04:38:47;;;;;;;19.83;8.48;;;9.70;99.90;;;;;;5027891;28;20069;-62
2023/05/25 04:41:14;;;;;;;17.92;8.27;;;9.70;99.90;;;;;;5036124;28;20053;-62
2023/05/25 04:43:39;;;;;;;13.30;7.20;;;9.80;99.90;;;;;;5034980;28;20111;-63
2023/05/25 04:46:07;;;;;;;17.33;8.35;;;10.00;99.90;;;;;;5039733;28;20076;-61
2023/05/25 04:48:33;;;;;;;18.05;8.43;;;10.10;99.90;;;;;;5040238;28;20041;-63
2023/05/25 04:51:01;;;;;;;21.25;8.82;;;10.20;99.90;;;;;;5040938;28;20037;-63
2023/05/25 04:53:28;;;;;;;16.63;8.38;;;10.00;99.90;;;;;;5039962;28;20498;-62
2023/05/25 04:55:54;;;;;;;20.15;9.30;;;10.00;99.90;;;;;;5030649;28;20121;-63
2023/05/25 04:58:21;;;;;;;19.27;8.55;;;10.00;99.90;;;;;;5042169;28;20475;-62
2023/05/25 05:00:46;;;;;;;18.05;8.85;;;10.10;99.90;;;;;;5035473;28;20598;-62
2023/05/25 05:03:12;;;;;;;20.45;8.77;;;10.20;99.90;;;;;;5030506;28;20033;-62
2023/05/25 05:05:38;;;;;;;20.15;8.75;;;10.40;99.90;;;;;;5032770;28;20125;-63
2023/05/25 05:08:04;;;;;;;22.00;9.43;;;10.30;99.90;;;;;;5035457;28;20301;-61
2023/05/25 05:10:29;;;;;;;19.38;9.20;;;10.40;99.90;;;;;;5038236;28;20040;-62
2023/05/25 05:12:55;;;;;;;21.45;9.85;;;10.60;99.90;;;;;;5031831;28;20233;-62
2023/05/25 05:15:20;;;;;;;19.98;9.38;;;10.70;99.90;;;;;;5026503;28;20064;-62
2023/05/25 05:17:46;;;;;;;20.52;9.27;;;10.60;99.90;;;;;;5031375;28;20034;-62
2023/05/25 05:20:12;;;;;;;19.92;9.82;;;10.40;99.90;;;;;;5030919;28;20053;-62
2023/05/25 05:22:37;;;;;;;18.63;10.00;;;10.60;99.90;;;;;;5039642;28;20052;-63
2023/05/25 05:25:03;;;;;;;19.83;9.52;;;10.90;99.90;;;;;;5036362;28;20033;-62
2023/05/25 05:27:29;;;;;;;19.27;9.25;;;11.00;99.90;;;;;;5031001;28;20040;-62
2023/05/25 05:29:55;;;;;;;17.60;8.93;;;11.00;99.90;;;;;;5026900;28;20040;-62
2023/05/25 05:32:21;;;;;;;16.88;8.95;;;11.00;99.90;;;;;;5032626;28;20125;-62
2023/05/25 05:34:46;;;;;;;20.00;8.93;;;11.00;99.90;;;;;;5029469;28;20033;-62
2023/05/25 05:37:12;;;;;;;20.50;8.75;;;10.30;99.90;;;;;;5032134;28;20029;-62
2023/05/25 05:39:38;;;;;;;20.27;9.40;;;11.20;99.90;;;;;;5031903;28;20064;-62
2023/05/25 05:42:03;;;;;;;22.90;9.35;;;11.20;99.90;;;;;;5027604;28;20034;-62
2023/05/25 05:44:29;;;;;;;22.35;9.55;;;11.10;99.90;;;;;;5031293;28;20045;-61
2023/05/25 05:46:58;;;;;;;22.08;9.30;;;11.20;99.90;;;;;;5031271;28;20067;-62
2023/05/25 05:49:28;;;;;;;26.52;10.30;;;11.10;99.90;;;;;;5027124;28;20080;-62
2023/05/25 05:51:53;;;;;;;21.85;10.07;;;11.20;99.90;;;;;;5033050;28;20501;-63
2023/05/25 05:54:19;;;;;;;19.15;9.98;;;11.10;99.90;;;;;;5029845;28;20037;-62
2023/05/25 05:56:45;;;;;;;23.27;10.20;;;11.20;99.90;;;;;;5032679;28;20044;-62
2023/05/25 05:59:10;;;;;;;19.67;9.95;;;11.50;99.90;;;;;;5030223;28;20083;-62
2023/05/25 06:01:37;;;;;;;23.02;9.30;;;11.50;99.90;;;;;;5034611;28;20448;-62
2023/05/25 06:04:05;;;;;;;23.02;9.75;;;11.60;99.90;;;;;;5021144;28;20072;-62
2023/05/25 06:06:33;;;;;;;22.05;10.07;;;11.70;99.90;;;;;;5032854;28;20041;-63
2023/05/25 06:09:00;;;;;;;22.83;10.02;;;11.80;99.90;;;;;;5036881;28;20045;-63
2023/05/25 06:11:25;;;;;;;19.27;9.70;;;11.80;99.90;;;;;;5029502;28;20049;-62
2023/05/25 06:13:51;;;;;;;28.83;11.02;;;11.90;99.90;;;;;;5035811;28;20041;-63
2023/05/25 06:16:17;;;;;;;20.30;10.05;;;12.00;99.90;;;;;;5029734;28;20509;-62
2023/05/25 06:18:42;;;;;;;18.67;10.13;;;12.00;99.90;;;;;;5028876;28;20400;-64
2023/05/25 06:21:08;;;;;;;24.83;10.40;;;12.10;99.90;;;;;;5031046;28;20017;-62
2023/05/25 06:23:33;;;;;;;21.65;10.38;;;12.20;99.90;;;;;;5038364;28;20481;-64
2023/05/25 06:26:03;;;;;;;24.25;11.63;;;12.30;99.90;;;;;;5030965;28;20233;-64
2023/05/25 06:28:29;;;;;;;25.65;10.65;;;12.50;99.90;;;;;;5033885;28;20033;-64
2023/05/25 06:30:55;;;;;;;22.23;10.43;;;12.70;99.90;;;;;;5031051;28;20043;-64
2023/05/25 06:33:21;;;;;;;24.02;9.82;;;12.80;99.90;;;;;;5030930;28;20057;-63
2023/05/25 06:35:46;;;;;;;23.80;9.88;;;12.50;99.90;;;;;;5034736;28;20038;-64
2023/05/25 06:38:12;;;;;;;26.98;10.18;;;12.70;99.90;;;;;;5025006;28;20052;-63
2023/05/25 06:40:37;;;;;;;22.08;10.48;;;12.70;99.90;;;;;;5027561;28;20044;-64
2023/05/25 06:43:03;;;;;;;30.27;9.95;;;12.70;99.90;;;;;;5035639;28;20883;-62
2023/05/25 06:45:29;;;;;;;23.75;10.10;;;13.00;99.90;;;;;;5030646;28;20029;-64
2023/05/25 06:47:54;;;;;;;20.67;9.20;;;13.20;99.90;;;;;;5031464;28;20113;-64
2023/05/25 06:50:20;;;;;;;23.88;9.63;;;13.10;99.90;;;;;;5032042;28;20064;-63
2023/05/25 06:52:46;;;;;;;21.58;9.93;;;13.20;99.90;;;;;;5030252;28;20044;-64
2023/05/25 06:55:12;;;;;;;26.48;10.20;;;13.10;99.90;;;;;;5031843;28;20113;-63
2023/05/25 06:57:38;;;;;;;23.75;9.90;;;13.10;99.90;;;;;;5034907;28;20109;-64
2023/05/25 07:00:06;;;;;;;25.58;9.93;;;13.00;99.90;;;;;;5025990;28;20030;-65
2023/05/25 07:02:32;;;;;;;18.90;9.85;;;13.20;99.90;;;;;;5025310;28;20041;-64
2023/05/25 07:04:58;;;;;;;21.05;9.73;;;13.30;99.90;;;;;;5026631;28;20099;-65
2023/05/25 07:07:23;;;;;;;17.17;8.68;;;13.30;99.90;;;;;;5025876;28;20041;-63
2023/05/25 07:09:49;;;;;;;22.83;10.10;;;13.20;99.90;;;;;;5029737;28;20132;-64
2023/05/25 07:12:15;;;;;;;25.23;11.05;;;13.30;99.90;;;;;;5024011;28;20073;-62
2023/05/25 07:14:41;;;;;;;20.02;9.50;;;13.70;99.90;;;;;;5026714;28;20099;-64
2023/05/25 07:17:06;;;;;;;18.85;9.63;;;13.60;99.90;;;;;;5031404;28;20056;-62
2023/05/25 07:19:32;;;;;;;20.35;9.75;;;13.80;99.90;;;;;;5037499;28;20041;-62
2023/05/25 07:21:57;;;;;;;16.48;9.10;;;13.90;99.90;;;;;;5031231;28;20030;-64
2023/05/25 07:24:23;;;;;;;21.33;9.68;;;13.90;99.90;;;;;;5033438;28;20511;-64
2023/05/25 07:26:48;;;;;;;23.33;10.48;;;14.10;99.90;;;;;;5037768;28;20440;-63
2023/05/25 07:29:14;;;;;;;18.88;10.13;;;14.20;99.90;;;;;;5038856;28;20637;-64
2023/05/25 07:31:40;;;;;;;18.70;9.65;;;14.20;99.90;;;;;;5025414;28;20044;-63
2023/05/25 07:34:05;;;;;;;22.00;12.10;;;14.60;99.90;;;;;;5036221;28;20055;-63
2023/05/25 07:36:31;;;;;;;24.48;11.77;;;14.60;99.90;;;;;;5033463;28;20054;-63
2023/05/25 07:38:57;;;;;;;19.05;10.25;;;14.70;99.90;;;;;;5030287;28;20040;-63
2023/05/25 07:41:22;;;;;;;24.23;11.23;;;14.70;99.90;;;;;;5032852;28;20453;-64
2023/05/25 07:43:48;;;;;;;23.50;9.82;;;14.70;99.90;;;;;;5034659;28;20029;-64
2023/05/25 07:46:15;;;;;;;26.42;16.50;;;15.60;99.90;;;;;;5035756;28;20240;-64
2023/05/25 07:48:41;;;;;;;29.63;20.05;;;14.80;99.90;;;;;;5035409;28;20025;-64
2023/05/25 07:51:07;;;;;;;35.90;22.23;;;14.50;99.90;;;;;;5034496;28;20041;-62
2023/05/25 07:53:32;;;;;;;40.65;26.25;;;14.20;99.90;;;;;;5036211;28;20038;-64
2023/05/25 07:55:58;;;;;;;33.20;22.17;;;13.90;99.90;;;;;;5034475;28;20073;-64
2023/05/25 07:58:23;;;;;;;40.50;23.30;;;13.90;99.90;;;;;;5029819;28;20400;-64
2023/05/25 08:00:49;;;;;;;39.05;24.75;;;14.30;99.90;;;;;;5031616;28;20473;-64
2023/05/25 08:03:15;;;;;;;34.60;23.98;;;14.60;99.90;;;;;;5037965;28;20647;-62
2023/05/25 08:05:42;;;;;;;28.60;16.58;;;14.40;99.90;;;;;;5032732;28;20498;-62
2023/05/25 08:08:09;;;;;;;29.40;15.13;;;14.30;99.90;;;;;;5031470;28;20570;-62
2023/05/25 08:10:34;;;;;;;34.50;20.92;;;14.20;99.90;;;;;;5033580;28;20044;-64
2023/05/25 08:13:00;;;;;;;35.90;21.52;;;14.60;99.90;;;;;;5031337;28;20025;-64
2023/05/25 08:15:26;;;;;;;20.98;14.88;;;14.90;99.90;;;;;;5030848;28;20045;-63
2023/05/25 08:17:52;;;;;;;25.48;15.13;;;14.70;99.90;;;;;;5037683;28;20477;-64
2023/05/25 08:20:17;;;;;;;28.85;16.48;;;14.50;99.90;;;;;;5029319;28;20037;-62
2023/05/25 08:22:44;;;;;;;26.00;16.55;;;14.60;99.90;;;;;;5030769;28;20129;-64
2023/05/25 08:25:10;;;;;;;25.98;16.67;;;14.60;99.90;;;;;;5033942;28;20025;-62
2023/05/25 08:27:35;;;;;;;29.77;19.77;;;14.80;99.90;;;;;;5032200;28;20154;-63
2023/05/25 08:30:02;;;;;;;27.65;19.00;;;14.80;99.90;;;;;;5030364;28;20038;-62
2023/05/25 08:32:27;;;;;;;29.75;19.60;;;14.60;99.90;;;;;;5036516;28;20038;-63
2023/05/25 08:34:53;;;;;;;30.98;18.27;;;14.60;99.90;;;;;;5029725;28;20117;-64
2023/05/25 08:37:21;;;;;;;30.38;18.02;;;14.90;99.90;;;;;;5034481;28;20060;-64
2023/05/25 08:39:46;;;;;;;27.25;17.92;;;15.30;99.90;;;;;;5031734;28;20041;-64
2023/05/25 08:42:13;;;;;;;27.23;20.13;;;15.20;99.90;;;;;;5037262;28;20060;-62
2023/05/25 08:44:39;;;;;;;27.23;18.52;;;14.70;99.90;;;;;;5034521;28;20717;-64
2023/05/25 08:47:09;;;;;;;23.77;14.95;;;15.00;99.90;;;;;;5032301;28;20393;-62
2023/05/25 08:49:37;;;;;;;27.77;15.68;;;15.00;99.90;;;;;;5033923;28;20084;-65
2023/05/25 08:52:04;;;;;;;28.38;17.10;;;15.10;99.90;;;;;;5038200;28;20068;-62
2023/05/25 08:54:35;;;;;;;24.95;16.40;;;14.90;99.90;;;;;;5029042;28;20152;-63
2023/05/25 08:57:16;;;;;;;24.42;18.02;;;15.00;99.90;;;;;;5035361;28;20041;-64
2023/05/25 09:00:03;;;;;;;22.45;17.45;;;15.20;99.90;;;;;;5034884;28;20040;-65
2023/05/25 09:02:48;;;;;;;22.30;16.70;;;15.10;99.90;;;;;;5057683;28;20171;-63
2023/05/25 09:05:14;;;;;;;26.30;14.40;;;15.40;99.90;;;;;;5053993;28;20500;-63
2023/05/25 09:07:44;;;;;;;22.92;18.08;;;15.70;99.90;;;;;;5055193;28;20037;-65
2023/05/25 09:10:10;;;;;;;27.05;19.30;;;15.80;99.90;;;;;;5064181;28;20029;-62
2023/05/25 09:12:37;;;;;;;23.42;16.30;;;15.20;99.90;;;;;;5058200;28;20310;-63
2023/05/25 09:15:03;;;;;;;22.80;16.85;;;15.20;99.90;;;;;;5057474;28;20060;-62
2023/05/25 09:17:29;;;;;;;23.50;13.63;;;15.60;99.90;;;;;;5057907;28;20123;-64
2023/05/25 09:19:55;;;;;;;18.67;11.25;;;15.80;99.90;;;;;;5054496;28;20120;-65
2023/05/25 09:22:21;;;;;;;16.65;10.65;;;15.50;99.90;;;;;;5063253;28;20024;-63
2023/05/25 09:24:47;;;;;;;14.05;7.35;;;15.20;99.90;;;;;;5059444;28;20736;-63
2023/05/25 09:27:17;;;;;;;13.30;7.30;;;15.30;99.90;;;;;;5050562;28;20037;-63
2023/05/25 09:29:42;;;;;;;17.45;7.97;;;15.20;99.90;;;;;;5061101;28;20044;-65
2023/05/25 09:32:08;;;;;;;16.50;10.70;;;15.20;99.90;;;;;;5058499;28;20444;-63
2023/05/25 09:34:34;;;;;;;16.17;11.77;;;15.40;99.90;;;;;;5057175;28;20029;-63
2023/05/25 09:37:09;;;;;;;16.38;10.50;;;15.70;99.90;;;;;;5062570;28;20720;-64
2023/05/25 09:39:35;;;;;;;16.05;10.73;;;16.00;99.90;;;;;;5046944;28;20532;-64
2023/05/25 09:42:01;;;;;;;18.60;9.00;;;16.00;99.90;;;;;;5053817;28;20072;-66
2023/05/25 09:44:26;;;;;;;19.10;11.30;;;15.70;99.90;;;;;;5055844;28;20242;-63
2023/05/25 09:46:52;;;;;;;14.63;8.93;;;16.00;99.90;;;;;;5053087;28;20541;-64
2023/05/25 09:49:18;;;;;;;16.98;11.18;;;16.30;99.90;;;;;;5057525;28;20166;-64
2023/05/25 09:51:44;;;;;;;18.10;10.77;;;16.40;99.90;;;;;;5059563;28;20119;-64
2023/05/25 09:54:10;;;;;;;17.83;12.75;;;16.20;99.90;;;;;;5057071;28;20119;-63
2023/05/25 09:56:36;;;;;;;20.42;10.85;;;15.60;99.90;;;;;;5059138;28;20037;-64
2023/05/25 09:59:02;;;;;;;14.07;8.82;;;15.90;99.90;;;;;;5058307;28;20032;-64
2023/05/25 10:01:27;;;;;;;12.30;7.07;;;16.10;99.90;;;;;;5056563;28;20036;-64
2023/05/25 10:03:55;;;;;;;10.88;5.93;;;15.90;99.90;;;;;;5051001;28;20400;-65
2023/05/25 10:06:25;;;;;;;9.55;4.82;;;16.10;99.90;;;;;;5053429;28;20516;-65
2023/05/25 10:08:52;;;;;;;13.38;9.48;;;15.90;99.90;;;;;;5058059;28;20029;-65
2023/05/25 10:11:20;;;;;;;12.25;7.38;;;15.90;99.90;;;;;;5051991;28;20329;-63
2023/05/25 10:13:46;;;;;;;12.00;7.82;;;15.70;99.90;;;;;;5054054;28;20137;-63
2023/05/25 10:16:16;;;;;;;10.50;5.60;;;15.80;99.90;;;;;;5059557;28;20037;-63
2023/05/25 10:18:58;;;;;;;8.45;4.22;;;15.90;99.90;;;;;;5050207;28;20044;-64
2023/05/25 10:21:26;;;;;;;10.98;3.72;;;15.80;99.90;;;;;;5049284;28;20471;-64
2023/05/25 10:23:55;;;;;;;10.68;5.97;;;15.90;99.90;;;;;;5055123;28;20544;-64
2023/05/25 10:26:25;;;;;;;9.25;6.15;;;15.80;99.90;;;;;;5059786;28;20044;-64
2023/05/25 10:28:52;;;;;;;12.38;5.47;;;15.90;99.90;;;;;;5052580;28;20033;-64
2023/05/25 10:31:18;;;;;;;8.90;4.80;;;16.20;99.90;;;;;;5051996;28;20037;-65
2023/05/25 10:33:45;;;;;;;9.52;4.40;;;16.10;99.90;;;;;;5055300;28;20037;-64
2023/05/25 10:36:16;;;;;;;10.27;5.20;;;16.10;99.90;;;;;;5058059;28;20106;-63
2023/05/25 10:38:43;;;;;;;8.45;4.25;;;15.50;99.90;;;;;;5057971;28;20063;-65
2023/05/25 10:41:10;;;;;;;9.65;5.10;;;15.80;99.90;;;;;;5047318;28;20035;-63
2023/05/25 10:43:36;;;;;;;10.30;4.60;;;15.70;99.90;;;;;;5049543;28;20037;-65
2023/05/25 10:46:05;;;;;;;14.05;4.35;;;15.50;99.90;;;;;;5050602;28;20029;-63
2023/05/25 10:48:45;;;;;;;13.18;6.20;;;15.70;99.90;;;;;;5051485;28;20025;-64
2023/05/25 10:51:10;;;;;;;17.92;7.32;;;15.30;99.90;;;;;;5053847;28;20148;-63
2023/05/25 10:53:36;;;;;;;12.73;6.40;;;15.80;99.90;;;;;;5053886;28;20033;-65
2023/05/25 10:56:04;;;;;;;16.08;6.47;;;15.80;99.90;;;;;;5053243;28;20404;-64
2023/05/25 10:58:31;;;;;;;11.93;5.30;;;15.90;99.90;;;;;;5055029;28;21344;-65
2023/05/25 11:01:07;;;;;;;9.63;4.63;;;15.90;99.90;;;;;;5059840;28;20125;-65
2023/05/25 11:03:55;;;;;;;11.73;5.68;;;15.50;99.90;;;;;;5061296;28;20040;-65
2023/05/25 11:06:45;;;;;;;10.98;5.63;;;16.00;99.90;;;;;;5050001;28;20112;-64
2023/05/25 11:09:26;;;;;;;13.85;7.53;;;16.40;99.90;;;;;;5059066;28;20102;-64
2023/05/25 11:11:54;;;;;;;22.90;9.43;;;16.30;99.90;;;;;;5063690;28;20033;-65
2023/05/25 11:14:21;;;;;;;12.77;7.25;;;16.30;99.90;;;;;;5067294;28;20107;-64
2023/05/25 11:17:10;;;;;;;16.63;6.93;;;16.10;99.90;;;;;;5053956;28;20539;-65
2023/05/25 11:19:42;;;;;;;15.50;7.75;;;16.10;99.90;;;;;;5058114;28;20761;-65
2023/05/25 11:22:21;;;;;;;10.82;6.45;;;16.30;99.90;;;;;;5055512;28;20503;-63
2023/05/25 11:24:51;;;;;;;15.07;6.78;;;16.30;99.90;;;;;;5057321;28;20082;-65
2023/05/25 11:27:26;;;;;;;15.38;7.68;;;16.60;99.90;;;;;;5059054;28;20216;-64
2023/05/25 11:29:53;;;;;;;9.00;5.78;;;17.10;99.90;;;;;;5055812;28;20485;-64
2023/05/25 11:32:19;;;;;;;11.93;5.55;;;16.70;99.90;;;;;;5057046;28;20037;-64
2023/05/25 11:34:51;;;;;;;12.43;5.22;;;16.60;99.90;;;;;;5058681;28;20166;-64
2023/05/25 11:37:21;;;;;;;13.15;4.53;;;16.90;99.90;;;;;;5055805;28;20748;-65
2023/05/25 11:39:51;;;;;;;11.95;4.53;;;16.60;99.90;;;;;;5052715;28;20037;-65
2023/05/25 11:42:19;;;;;;;10.13;5.15;;;16.40;99.90;;;;;;5058157;28;20040;-64
2023/05/25 11:44:44;;;;;;;13.05;4.90;;;16.20;99.90;;;;;;5053381;28;20048;-65
2023/05/25 11:47:17;;;;;;;12.35;6.10;;;16.40;99.90;;;;;;5054128;28;20511;-63
2023/05/25 11:49:45;;;;;;;11.75;5.90;;;16.60;99.90;;;;;;5055969;28;20040;-65
2023/05/25 11:52:19;;;;;;;11.45;4.43;;;16.60;99.90;;;;;;5054428;28;20504;-64
2023/05/25 11:54:45;;;;;;;12.82;5.03;;;16.30;99.90;;;;;;5053187;28;20032;-64
2023/05/25 11:57:23;;;;;;;12.95;5.38;;;16.20;99.90;;;;;;5053982;28;20684;-64
2023/05/25 11:59:54;;;;;;;11.38;5.75;;;16.50;99.90;;;;;;5053899;28;20045;-64
2023/05/25 12:02:20;;;;;;;12.05;7.93;;;16.30;99.90;;;;;;5052916;28;20064;-64
2023/05/25 12:05:00;;;;;;;15.50;7.88;;;16.20;99.90;;;;;;5053592;28;20408;-65
2023/05/25 12:07:27;;;;;;;11.73;5.82;;;16.30;99.90;;;;;;5054525;28;20537;-65
2023/05/25 12:10:06;;;;;;;11.93;4.53;;;16.60;99.90;;;;;;5061752;28;20033;-65
2023/05/25 12:12:45;;;;;;;11.00;5.82;;;16.60;99.90;;;;;;5059861;28;20040;-64
2023/05/25 12:15:14;;;;;;;14.35;5.13;;;16.60;99.90;;;;;;5053212;28;20059;-65
2023/05/25 12:17:41;;;;;;;12.25;5.45;;;16.50;99.90;;;;;;5055587;28;20102;-65
2023/05/25 12:20:09;;;;;;;10.20;4.82;;;16.60;99.90;;;;;;5061404;28;20033;-63
2023/05/25 12:22:35;;;;;;;12.45;5.10;;;16.80;99.90;;;;;;5062967;28;20037;-65
2023/05/25 12:25:03;;;;;;;10.73;4.65;;;16.70;99.90;;;;;;5062444;28;20025;-66
2023/05/25 12:27:29;;;;;;;14.95;4.78;;;16.60;99.90;;;;;;5058908;28;20060;-64
2023/05/25 12:29:57;;;;;;;9.63;4.85;;;16.80;99.90;;;;;;5059820;28;20056;-64
2023/05/25 12:32:23;;;;;;;12.07;4.60;;;16.60;99.90;;;;;;5060145;28;20047;-64
2023/05/25 12:34:49;;;;;;;7.43;4.18;;;16.30;99.90;;;;;;5058618;28;20044;-65
2023/05/25 12:37:19;;;;;;;10.40;5.10;;;16.30;99.90;;;;;;5049145;28;20438;-64